Ruthton, Minnesota
Current Conditions -  °F | °C
As of 3:54 PM on Friday 28 Nov 2014 (Local Time) from KPQN Reporting Station
Clear Clear  
Wind Chill: 24°   Ceiling: Unl
Heat Index: 32°   Visibility: 10mi
Dew Point: 27°   Wind: 9mph
Humidity: 80%   Direction: 140°SE
Pressure: 29.65"   Gusts: NA
Location:  44.18°N, 96.1°W
Report Text: KPQN 282154Z AUTO 14008KT 10SM CLR 00/M03 A2965 RMK AO2 LTG DSNT N
Loading
Personal Weather Stations






























Interactive Weather Map New forecast layout! Learn more

10-Day Weather Forecast

Advertisements
Track Severe Weather on mobile